createdAt,value
2018-04-14T00:01:54.357Z,2.30
2018-04-14T00:04:23.829Z,3.07
2018-04-14T00:06:52.639Z,3.57
2018-04-14T00:09:21.444Z,2.67
2018-04-14T00:11:50.307Z,2.13
2018-04-14T00:14:19.113Z,2.37
2018-04-14T00:16:47.986Z,2.87
2018-04-14T00:19:16.875Z,2.00
2018-04-14T00:21:45.772Z,2.97
2018-04-14T00:24:14.571Z,2.37
2018-04-14T00:26:43.755Z,2.30
2018-04-14T00:29:12.557Z,2.00
2018-04-14T00:31:41.700Z,2.67
2018-04-14T00:34:10.567Z,2.40
2018-04-14T00:36:39.394Z,2.77
2018-04-14T00:39:08.189Z,2.37
2018-04-14T00:41:37.405Z,2.07
2018-04-14T00:44:06.226Z,2.87
2018-04-14T00:46:35.039Z,2.50
2018-04-14T00:49:03.869Z,2.13
2018-04-14T00:51:32.670Z,2.23
2018-04-14T00:54:01.546Z,3.30
2018-04-14T00:56:30.347Z,2.70
2018-04-14T00:58:59.162Z,2.40
2018-04-14T01:01:28.016Z,2.40
2018-04-14T01:03:56.904Z,2.27
2018-04-14T01:06:25.803Z,2.70
2018-04-14T01:08:54.698Z,2.13
2018-04-14T01:11:23.584Z,3.00
2018-04-14T01:13:52.403Z,2.40
2018-04-14T01:16:21.526Z,2.73
2018-04-14T01:18:50.334Z,2.10
2018-04-14T01:21:19.146Z,3.13
2018-04-14T01:23:48.762Z,2.33
2018-04-14T01:26:17.557Z,2.63
2018-04-14T01:28:46.641Z,2.50
2018-04-14T01:31:15.922Z,3.00
2018-04-14T01:33:44.746Z,1.97
2018-04-14T01:36:13.611Z,2.27
2018-04-14T01:38:42.417Z,2.30
2018-04-14T01:41:11.213Z,2.20
2018-04-14T01:43:40.066Z,2.10
2018-04-14T01:46:08.873Z,2.00
2018-04-14T01:48:37.679Z,2.37
2018-04-14T01:51:06.659Z,2.70
2018-04-14T01:53:35.467Z,2.60
2018-04-14T01:56:04.355Z,2.57
2018-04-14T01:58:34.045Z,2.33
2018-04-14T02:01:02.855Z,2.30
2018-04-14T02:03:31.666Z,1.87
2018-04-14T02:06:00.486Z,2.40
2018-04-14T02:08:29.297Z,2.40
2018-04-14T02:10:58.139Z,2.47
2018-04-14T02:13:26.941Z,2.77
2018-04-14T02:15:55.745Z,2.10
2018-04-14T02:18:24.607Z,2.33
2018-04-14T02:20:53.410Z,2.10
2018-04-14T02:23:22.241Z,2.07
2018-04-14T02:25:51.086Z,2.20
2018-04-14T02:28:19.899Z,1.93
2018-04-14T02:30:48.703Z,2.30
2018-04-14T02:33:18.417Z,1.90
2018-04-14T02:35:47.309Z,2.43
2018-04-14T02:38:16.150Z,3.43
2018-04-14T02:40:44.956Z,3.73
2018-04-14T02:43:13.789Z,2.60
2018-04-14T02:45:42.878Z,2.07
2018-04-14T02:48:11.692Z,2.27
2018-04-14T02:50:40.568Z,2.20
2018-04-14T02:53:09.449Z,2.17
2018-04-14T02:55:38.257Z,2.77
2018-04-14T02:58:07.121Z,2.37
2018-04-14T03:00:35.994Z,2.00
2018-04-14T03:03:04.794Z,2.50
2018-04-14T03:05:33.605Z,1.93
2018-04-14T03:08:03.100Z,1.97
2018-04-14T03:10:31.921Z,1.90
2018-04-14T03:13:00.800Z,1.80
2018-04-14T03:15:29.622Z,2.70
2018-04-14T03:17:58.430Z,1.90
2018-04-14T03:20:27.466Z,1.90
2018-04-14T03:22:56.362Z,1.80
2018-04-14T03:25:25.174Z,2.90
2018-04-14T03:27:54.017Z,2.10
2018-04-14T03:30:22.829Z,2.40
2018-04-14T03:32:51.714Z,1.70
2018-04-14T03:35:21.225Z,2.30
2018-04-14T03:37:50.110Z,2.67
2018-04-14T03:40:18.926Z,2.80
2018-04-14T03:42:48.194Z,2.50
2018-04-14T03:45:17.003Z,2.23
2018-04-14T03:47:45.813Z,2.20
2018-04-14T03:50:14.670Z,2.13
2018-04-14T03:52:43.465Z,2.13
2018-04-14T03:55:12.274Z,2.17
2018-04-14T03:57:41.350Z,1.90
2018-04-14T04:00:10.145Z,2.87
2018-04-14T04:02:38.965Z,2.60
2018-04-14T04:05:07.830Z,2.73
2018-04-14T04:07:37.926Z,2.20
2018-04-14T04:10:06.819Z,2.40
2018-04-14T04:12:35.717Z,2.43
2018-04-14T04:15:04.606Z,1.80
2018-04-14T04:17:33.506Z,2.43
2018-04-14T04:20:08.319Z,2.03
2018-04-14T04:22:42.981Z,1.97
2018-04-14T04:25:18.495Z,1.90
2018-04-14T04:27:47.312Z,1.80
2018-04-14T04:30:16.230Z,1.60
2018-04-14T04:32:45.059Z,1.97
2018-04-14T04:35:13.873Z,2.40
2018-04-14T04:37:43.220Z,1.97
2018-04-14T04:40:12.251Z,2.00
2018-04-14T04:42:41.142Z,1.73
2018-04-14T04:45:09.975Z,1.80
2018-04-14T04:47:38.806Z,2.47
2018-04-14T04:50:07.611Z,2.30
2018-04-14T04:52:36.459Z,1.97
2018-04-14T04:55:05.261Z,2.10
2018-04-14T04:57:34.070Z,2.20
2018-04-14T05:00:02.972Z,1.90
2018-04-14T05:02:31.777Z,2.60
2018-04-14T05:05:00.963Z,2.00
2018-04-14T05:07:29.778Z,2.90
2018-04-14T05:09:58.578Z,2.60
2018-04-14T05:12:27.644Z,2.40
2018-04-14T05:14:56.438Z,1.97
2018-04-14T05:17:25.258Z,2.33
2018-04-14T05:19:54.308Z,2.07
2018-04-14T05:22:23.101Z,3.10
2018-04-14T05:24:51.987Z,2.77
2018-04-14T05:27:20.811Z,2.93
2018-04-14T05:29:49.634Z,2.70
2018-04-14T05:32:18.514Z,2.27
2018-04-14T05:34:47.318Z,2.43
2018-04-14T05:37:17.007Z,2.53
2018-04-14T05:39:45.840Z,2.90
2018-04-14T05:42:14.648Z,2.77
2018-04-14T05:44:44.557Z,2.20
2018-04-14T05:47:13.364Z,2.50
2018-04-14T05:49:42.234Z,2.90
2018-04-14T05:52:11.106Z,2.63
2018-04-14T05:54:39.916Z,2.77
2018-04-14T05:57:08.721Z,3.07
2018-04-14T05:59:37.727Z,2.40
2018-04-14T06:02:06.576Z,2.30
2018-04-14T06:04:35.479Z,2.47
2018-04-14T06:07:04.510Z,2.20
2018-04-14T06:09:33.334Z,2.20
2018-04-14T06:12:02.142Z,2.67
2018-04-14T06:14:31.007Z,2.10
2018-04-14T06:16:59.818Z,2.43
2018-04-14T06:19:28.634Z,2.90
2018-04-14T06:21:57.818Z,3.20
2018-04-14T06:24:26.638Z,2.73
2018-04-14T06:26:55.445Z,2.60
2018-04-14T06:29:25.299Z,3.00
2018-04-14T06:31:54.199Z,3.13
2018-04-14T06:34:23.014Z,3.20
2018-04-14T06:36:53.438Z,3.70
2018-04-14T06:39:22.237Z,5.10
2018-04-14T06:41:51.053Z,6.60
2018-04-14T06:44:19.873Z,6.03
2018-04-14T06:46:48.689Z,4.90
2018-04-14T06:49:18.079Z,4.43
2018-04-14T06:51:46.899Z,3.73
2018-04-14T06:54:15.759Z,3.20
2018-04-14T06:56:44.853Z,3.40
2018-04-14T06:59:13.663Z,2.80
2018-04-14T07:01:42.483Z,2.30
2018-04-14T07:04:11.343Z,2.70
2018-04-14T07:06:40.144Z,2.37
2018-04-14T07:09:09.716Z,2.40
2018-04-14T07:11:38.607Z,2.33
2018-04-14T07:14:07.412Z,2.70
2018-04-14T07:16:36.305Z,2.63
2018-04-14T07:19:05.114Z,2.83
2018-04-14T07:21:33.958Z,2.80
2018-04-14T07:24:02.862Z,2.70
2018-04-14T07:26:31.743Z,2.40
2018-04-14T07:29:01.263Z,2.30
2018-04-14T07:31:30.158Z,2.73
2018-04-14T07:33:58.958Z,2.87
2018-04-14T07:36:27.783Z,2.57
2018-04-14T07:38:57.509Z,2.47
2018-04-14T07:41:26.341Z,2.33
2018-04-14T07:43:55.208Z,2.50
2018-04-14T07:46:25.239Z,2.53
2018-04-14T07:48:54.050Z,5.10
2018-04-14T07:51:22.859Z,2.57
2018-04-14T07:53:51.694Z,2.40
2018-04-14T07:56:20.754Z,2.93
2018-04-14T07:58:49.698Z,2.50
2018-04-14T08:01:18.504Z,1.87
2018-04-14T08:03:47.319Z,1.70
2018-04-14T08:06:16.372Z,2.00
2018-04-14T08:08:46.586Z,1.80
2018-04-14T08:11:15.479Z,1.90
2018-04-14T08:13:44.322Z,1.80
2018-04-14T08:16:13.139Z,1.30
2018-04-14T08:18:41.949Z,1.70
2018-04-14T08:21:10.794Z,2.00
2018-04-14T08:23:39.635Z,1.90
2018-04-14T08:26:08.450Z,1.47
2018-04-14T08:28:38.131Z,1.30
2018-04-14T08:31:06.931Z,1.77
2018-04-14T08:33:35.744Z,1.90
2018-04-14T08:36:04.570Z,1.97
2018-04-14T08:38:33.381Z,1.63
2018-04-14T08:41:03.837Z,1.70
2018-04-14T08:43:32.641Z,1.70
2018-04-14T08:46:01.443Z,1.50
2018-04-14T08:48:31.289Z,1.20
2018-04-14T08:51:00.092Z,1.30
2018-04-14T08:53:28.911Z,1.30
2018-04-14T08:55:57.742Z,1.20
2018-04-14T08:58:26.561Z,1.30
2018-04-14T09:00:55.416Z,1.43
2018-04-14T09:03:24.221Z,1.40
2018-04-14T09:05:53.035Z,1.40
2018-04-14T09:08:21.929Z,1.20
2018-04-14T09:10:50.741Z,1.50
2018-04-14T09:13:19.547Z,0.97
2018-04-14T09:15:48.585Z,1.20
2018-04-14T09:18:17.392Z,1.40
2018-04-14T09:20:46.195Z,1.20
2018-04-14T09:23:15.677Z,1.10
2018-04-14T09:25:44.474Z,1.20
2018-04-14T09:28:13.346Z,0.90
2018-04-14T09:30:42.237Z,1.20
2018-04-14T09:33:11.057Z,1.23
2018-04-14T09:35:39.950Z,1.00
2018-04-14T09:38:08.752Z,0.90
2018-04-14T09:40:37.558Z,0.90
2018-04-14T09:43:08.538Z,0.80
2018-04-14T09:45:37.338Z,1.00
2018-04-14T09:48:06.251Z,0.83
2018-04-14T09:50:35.109Z,1.03
2018-04-14T09:53:03.926Z,0.80
2018-04-14T09:55:32.994Z,0.77
2018-04-14T09:58:01.902Z,0.80
2018-04-14T10:00:30.757Z,0.60
2018-04-14T10:02:59.892Z,0.57
2018-04-14T10:05:28.682Z,0.60
2018-04-14T10:07:58.786Z,0.53
2018-04-14T10:10:27.655Z,0.90
2018-04-14T10:12:56.454Z,0.47
2018-04-14T10:15:25.567Z,0.50
2018-04-14T10:17:54.391Z,0.70
2018-04-14T10:20:23.205Z,0.60
2018-04-14T10:22:52.035Z,0.60
2018-04-14T10:25:20.837Z,0.53
2018-04-14T10:27:49.718Z,0.60
2018-04-14T10:30:18.526Z,0.50
2018-04-14T10:32:47.403Z,0.50
2018-04-14T10:35:16.203Z,0.60
2018-04-14T10:37:45.143Z,0.60
2018-04-14T10:40:14.267Z,0.70
2018-04-14T10:42:43.070Z,0.67
2018-04-14T10:45:14.306Z,0.83
2018-04-14T10:47:43.134Z,0.70
2018-04-14T10:50:11.947Z,0.77
2018-04-14T10:52:40.814Z,0.80
2018-04-14T10:55:09.628Z,0.60
2018-04-14T10:57:38.453Z,0.60
2018-04-14T11:00:07.307Z,0.73
2018-04-14T11:02:36.105Z,0.60
2018-04-14T11:05:04.915Z,0.80
2018-04-14T11:07:33.807Z,0.80
2018-04-14T11:10:02.615Z,0.70
2018-04-14T11:12:31.491Z,0.60
2018-04-14T11:17:35.010Z,0.73
2018-04-14T11:20:03.916Z,0.70
2018-04-14T11:22:33.827Z,0.90
2018-04-14T11:25:02.710Z,0.60
2018-04-14T11:27:31.514Z,0.70
2018-04-14T11:30:00.428Z,0.60
2018-04-14T11:32:29.230Z,0.60
2018-04-14T11:34:58.058Z,0.50
2018-04-14T11:37:26.878Z,0.67
2018-04-14T11:39:55.757Z,0.60
2018-04-14T11:42:24.623Z,0.53
2018-04-14T11:44:53.535Z,0.67
2018-04-14T11:47:23.598Z,0.60
2018-04-14T11:49:53.359Z,0.73
2018-04-14T11:52:22.261Z,0.80
2018-04-14T11:54:51.137Z,0.80
2018-04-14T11:57:20.686Z,0.60
2018-04-14T11:59:49.542Z,0.70
2018-04-14T12:02:18.460Z,0.57
2018-04-14T12:04:47.313Z,0.70
2018-04-14T12:07:19.702Z,0.70
2018-04-14T12:09:48.640Z,0.43
2018-04-14T12:12:17.394Z,0.60
2018-04-14T12:14:46.258Z,0.70
2018-04-14T12:17:15.061Z,0.57
2018-04-14T12:19:43.867Z,0.70
2018-04-14T12:22:12.743Z,0.60
2018-04-14T12:24:41.627Z,0.80
2018-04-14T12:27:11.943Z,0.80
2018-04-14T12:29:40.757Z,0.60
2018-04-14T12:32:09.644Z,0.70
2018-04-14T12:34:38.767Z,0.50
2018-04-14T12:37:07.563Z,0.60
2018-04-14T12:39:36.402Z,0.55
2018-04-14T12:42:05.293Z,0.60
2018-04-14T12:44:34.098Z,0.60
2018-04-14T12:47:02.908Z,0.70
2018-04-14T12:49:33.821Z,0.50
2018-04-14T12:52:02.642Z,0.70
2018-04-14T12:54:31.490Z,0.60
2018-04-14T12:57:00.334Z,0.70
2018-04-14T12:59:29.161Z,0.73
2018-04-14T13:01:57.958Z,0.70
2018-04-14T13:04:27.166Z,0.70
2018-04-14T13:06:55.978Z,0.70
2018-04-14T13:09:24.789Z,0.80
2018-04-14T13:11:53.643Z,0.73
2018-04-14T13:14:22.447Z,0.90
2018-04-14T13:16:51.259Z,0.80
2018-04-14T13:19:20.359Z,0.80
2018-04-14T13:21:49.205Z,0.82
2018-04-14T13:24:18.085Z,0.80
2018-04-14T13:26:46.990Z,0.80
2018-04-14T13:29:15.782Z,0.90
2018-04-14T13:31:44.653Z,0.88
2018-04-14T13:34:13.759Z,0.70
2018-04-14T13:36:42.569Z,0.60
2018-04-14T13:39:11.382Z,0.60
2018-04-14T13:41:40.447Z,0.65
2018-04-14T13:44:09.278Z,0.60
2018-04-14T13:46:38.087Z,0.80
2018-04-14T13:49:06.958Z,0.77
2018-04-14T13:51:36.704Z,0.60
2018-04-14T13:54:05.512Z,0.95
2018-04-14T13:56:34.407Z,0.70
2018-04-14T13:59:03.221Z,1.60
2018-04-14T14:01:32.674Z,0.77
2018-04-14T14:04:01.477Z,0.70
2018-04-14T14:06:30.286Z,1.00
2018-04-14T14:09:00.905Z,0.88
2018-04-14T14:11:29.706Z,0.90
2018-04-14T14:13:58.521Z,0.77
2018-04-14T14:16:27.375Z,0.77
2018-04-14T14:18:56.183Z,0.65
2018-04-14T14:21:25.043Z,0.80
2018-04-14T14:23:53.920Z,0.60
2018-04-14T14:26:22.697Z,0.88
2018-04-14T14:28:51.506Z,0.55
2018-04-14T14:31:20.801Z,0.52
2018-04-14T14:33:49.607Z,0.60
2018-04-14T14:36:18.434Z,0.90
2018-04-14T14:38:48.511Z,0.70
2018-04-14T14:41:17.332Z,0.50
2018-04-14T14:43:46.138Z,0.47
2018-04-14T14:46:15.178Z,0.80
2018-04-14T14:48:43.980Z,0.60
2018-04-14T14:51:12.791Z,0.73
2018-04-14T14:53:41.643Z,2.83
2018-04-14T14:56:10.450Z,0.60
2018-04-14T14:58:39.299Z,0.70
2018-04-14T15:01:08.115Z,10.57
2018-04-14T15:03:36.923Z,0.73
2018-04-14T15:06:06.928Z,0.60
2018-04-14T15:08:35.822Z,0.90
2018-04-14T15:11:05.023Z,0.62
2018-04-14T15:13:33.866Z,0.60
2018-04-14T15:16:02.678Z,0.55
2018-04-14T15:18:31.535Z,0.50
2018-04-14T15:21:00.378Z,0.60
2018-04-14T15:23:29.181Z,0.60
2018-04-14T15:25:58.083Z,0.50
2018-04-14T15:28:26.880Z,0.60
2018-04-14T15:30:55.703Z,0.70
2018-04-14T15:33:24.560Z,0.60
2018-04-14T15:35:53.373Z,0.80
2018-04-14T15:38:22.215Z,1.27
2018-04-14T15:40:51.014Z,0.50
2018-04-14T15:43:19.831Z,0.70
2018-04-14T15:45:48.657Z,1.30
2018-04-14T15:48:17.471Z,0.90
2018-04-14T15:50:46.689Z,0.95
2018-04-14T15:53:15.573Z,0.80
2018-04-14T15:55:44.417Z,0.80
2018-04-14T15:58:13.334Z,0.80
2018-04-14T16:00:42.146Z,5.22
2018-04-14T16:03:11.023Z,0.80
2018-04-14T16:05:39.894Z,0.82
2018-04-14T16:08:08.842Z,0.70
2018-04-14T16:10:38.311Z,0.40
2018-04-14T16:13:08.031Z,4.50
2018-04-14T16:15:36.863Z,4.78
2018-04-14T16:18:05.674Z,4.12
2018-04-14T16:20:34.618Z,0.80
2018-04-14T16:23:03.430Z,0.70
2018-04-14T16:25:32.284Z,0.80
2018-04-14T16:28:01.131Z,0.70
2018-04-14T16:30:29.947Z,1.10
2018-04-14T16:32:58.779Z,0.90
2018-04-14T16:35:27.683Z,1.35
2018-04-14T16:37:56.621Z,1.30
2018-04-14T16:40:25.417Z,3.62
2018-04-14T16:42:54.294Z,5.10
2018-04-14T16:45:23.182Z,1.70
2018-04-14T16:47:52.090Z,0.70
2018-04-14T16:50:21.298Z,0.40
2018-04-14T16:52:50.123Z,0.50
2018-04-14T16:55:18.970Z,0.50
2018-04-14T16:57:47.851Z,0.52
2018-04-14T17:00:16.689Z,0.60
2018-04-14T17:02:45.499Z,0.60
2018-04-14T17:05:14.309Z,0.53
2018-04-14T17:07:47.506Z,0.50
2018-04-14T17:10:16.376Z,0.60
2018-04-14T17:12:45.187Z,0.90
2018-04-14T17:15:14.112Z,1.20
2018-04-14T17:17:42.911Z,1.47
2018-04-14T17:20:11.882Z,1.20
2018-04-14T17:22:40.694Z,1.17
2018-04-14T17:25:09.510Z,1.00
2018-04-14T17:27:39.456Z,0.93
2018-04-14T17:30:08.289Z,1.00
2018-04-14T17:32:37.087Z,0.87
2018-04-14T17:35:05.929Z,1.10
2018-04-14T17:37:34.740Z,0.77
2018-04-14T17:40:03.579Z,0.70
2018-04-14T17:42:32.386Z,0.70
2018-04-14T17:45:01.903Z,0.70
2018-04-14T17:47:30.771Z,0.80
2018-04-14T17:49:59.575Z,0.70
2018-04-14T17:52:28.466Z,0.73
2018-04-14T17:54:57.277Z,1.03
2018-04-14T17:57:26.100Z,1.43
2018-04-14T17:59:54.991Z,1.00
2018-04-14T18:02:23.790Z,0.97
2018-04-14T18:04:52.641Z,1.10
2018-04-14T18:07:21.922Z,0.80
2018-04-14T18:09:51.610Z,1.03
2018-04-14T18:12:20.520Z,1.00
2018-04-14T18:14:49.375Z,0.93
2018-04-14T18:17:18.896Z,1.20
2018-04-14T18:19:47.686Z,0.90
2018-04-14T18:22:16.519Z,1.10
2018-04-14T18:24:45.342Z,1.13
2018-04-14T18:27:15.195Z,0.90
2018-04-14T18:29:44.002Z,0.90
2018-04-14T18:32:12.827Z,0.90
2018-04-14T18:34:41.639Z,0.90
2018-04-14T18:37:10.466Z,1.20
2018-04-14T18:39:39.326Z,1.07
2018-04-14T18:42:08.178Z,1.40
2018-04-14T18:44:37.026Z,1.17
2018-04-14T18:47:05.907Z,1.07
2018-04-14T18:49:34.737Z,1.20
2018-04-14T18:52:03.617Z,1.30
2018-04-14T18:54:32.571Z,1.27
2018-04-14T18:57:01.515Z,1.43
2018-04-14T18:59:30.366Z,1.10
2018-04-14T19:01:59.679Z,1.50
2018-04-14T19:04:28.542Z,1.50
2018-04-14T19:06:57.355Z,1.70
2018-04-14T19:09:29.116Z,1.57
2018-04-14T19:11:58.263Z,1.60
2018-04-14T19:14:27.104Z,2.00
2018-04-14T19:16:56.017Z,1.70
2018-04-14T19:19:25.032Z,1.60
2018-04-14T19:21:53.973Z,2.80
2018-04-14T19:24:22.879Z,37.30
2018-04-14T19:26:51.764Z,50.20
2018-04-14T19:29:20.768Z,58.90
2018-04-14T19:31:50.601Z,16.57
2018-04-14T19:34:19.521Z,16.17
2018-04-14T19:36:48.360Z,17.27
2018-04-14T19:39:17.541Z,16.07
2018-04-14T19:41:46.534Z,10.33
2018-04-14T19:44:15.451Z,3.90
2018-04-14T19:46:44.389Z,3.03
2018-04-14T19:49:13.275Z,2.30
2018-04-14T19:51:42.087Z,2.30
2018-04-14T19:54:11.152Z,1.97
2018-04-14T19:56:40.059Z,2.27
2018-04-14T19:59:08.893Z,2.10
2018-04-14T20:01:37.882Z,1.80
2018-04-14T20:04:06.775Z,1.63
2018-04-14T20:06:35.724Z,1.53
2018-04-14T20:09:04.589Z,1.70
2018-04-14T20:11:34.516Z,1.60
2018-04-14T20:14:03.402Z,1.70
2018-04-14T20:16:32.252Z,1.40
2018-04-14T20:19:01.102Z,1.90
2018-04-14T20:21:30.011Z,1.80
2018-04-14T20:23:58.864Z,1.90
2018-04-14T20:26:27.696Z,1.87
2018-04-14T20:28:56.503Z,1.70
2018-04-14T20:31:25.950Z,1.93
2018-04-14T20:33:54.791Z,1.70
2018-04-14T20:36:23.632Z,1.70
2018-04-14T20:38:52.502Z,2.00
2018-04-14T20:41:21.367Z,1.80
2018-04-14T20:43:50.176Z,1.77
2018-04-14T20:46:19.043Z,2.10
2018-04-14T20:48:47.862Z,1.77
2018-04-14T20:51:16.741Z,2.10
2018-04-14T20:53:45.806Z,1.70
2018-04-14T20:56:14.638Z,1.90
2018-04-14T20:58:43.460Z,2.00
2018-04-14T21:01:12.383Z,1.97
2018-04-14T21:03:41.213Z,2.00
2018-04-14T21:06:10.028Z,2.10
2018-04-14T21:08:40.448Z,1.80
2018-04-14T21:11:09.279Z,2.33
2018-04-14T21:13:38.195Z,1.80
2018-04-14T21:16:07.031Z,2.03
2018-04-14T21:18:35.834Z,1.97
2018-04-14T21:21:04.658Z,2.03
2018-04-14T21:23:33.536Z,2.00
2018-04-14T21:26:03.768Z,2.00
2018-04-14T21:28:32.601Z,1.93
2018-04-14T21:31:01.484Z,1.97
2018-04-14T21:33:30.371Z,1.80
2018-04-14T21:35:59.237Z,1.70
2018-04-14T21:38:28.126Z,1.60
2018-04-14T21:40:56.944Z,1.93
2018-04-14T21:43:25.764Z,1.90
2018-04-14T21:45:54.825Z,1.60
2018-04-14T21:48:23.738Z,1.40
2018-04-14T21:50:53.000Z,1.70
2018-04-14T21:53:21.816Z,1.57
2018-04-14T21:55:50.631Z,1.90
2018-04-14T21:58:19.555Z,1.70
2018-04-14T22:00:48.362Z,1.80
2018-04-14T22:03:17.174Z,1.73
2018-04-14T22:05:46.209Z,1.97
2018-04-14T22:08:15.112Z,1.93
2018-04-14T22:10:43.931Z,1.90
2018-04-14T22:13:12.832Z,2.03
2018-04-14T22:15:42.666Z,1.80
2018-04-14T22:18:11.466Z,1.97
2018-04-14T22:20:41.104Z,2.10
2018-04-14T22:23:09.912Z,1.90
2018-04-14T22:25:38.783Z,1.87
2018-04-14T22:28:07.896Z,1.50
2018-04-14T22:30:36.703Z,1.63
2018-04-14T22:33:05.558Z,1.73
2018-04-14T22:35:34.437Z,2.00
2018-04-14T22:38:03.250Z,1.60
2018-04-14T22:40:32.066Z,1.63
2018-04-14T22:43:01.026Z,1.70
2018-04-14T22:45:29.826Z,1.70
2018-04-14T22:47:58.655Z,1.90
2018-04-14T22:50:27.697Z,1.60
2018-04-14T22:52:56.499Z,1.80
2018-04-14T22:55:25.386Z,2.27
2018-04-14T22:57:55.645Z,1.97
2018-04-14T23:00:24.452Z,2.07
2018-04-14T23:02:53.273Z,2.13
2018-04-14T23:05:22.377Z,1.90
2018-04-14T23:07:53.107Z,2.00
2018-04-14T23:10:21.939Z,1.63
2018-04-14T23:12:50.981Z,2.30
2018-04-14T23:15:19.849Z,1.97
2018-04-14T23:17:48.683Z,2.20
2018-04-14T23:20:17.535Z,2.20
2018-04-14T23:22:46.350Z,2.47
2018-04-14T23:25:15.157Z,2.23
2018-04-14T23:27:43.995Z,2.07
2018-04-14T23:30:12.794Z,1.90
2018-04-14T23:32:41.689Z,2.20
2018-04-14T23:35:10.498Z,2.17
2018-04-14T23:37:39.382Z,2.07
2018-04-14T23:40:08.277Z,2.20
2018-04-14T23:42:37.089Z,2.53
2018-04-14T23:45:05.967Z,2.37
2018-04-14T23:47:35.005Z,2.47
2018-04-14T23:50:03.810Z,2.20
2018-04-14T23:52:32.629Z,1.80
2018-04-14T23:55:01.482Z,1.80
2018-04-14T23:57:30.301Z,1.97
2018-04-14T23:59:59.197Z,1.90
